createdAt,value
2022-09-11T00:02:05.009Z,15.40
2022-09-11T00:04:34.217Z,15.30
2022-09-11T00:07:02.793Z,15.40
2022-09-11T00:09:31.399Z,15.30
2022-09-11T00:12:01.379Z,15.40
2022-09-11T00:14:30.423Z,15.40
2022-09-11T00:16:59.028Z,15.30
2022-09-11T00:19:28.705Z,15.10
2022-09-11T00:21:57.769Z,15.30
2022-09-11T00:24:26.351Z,15.20
2022-09-11T00:26:54.975Z,15.20
2022-09-11T00:29:25.712Z,15.20
2022-09-11T00:31:54.877Z,15.20
2022-09-11T00:34:23.521Z,15.10
2022-09-11T00:36:53.601Z,15.20
2022-09-11T00:39:22.281Z,15.20
2022-09-11T00:41:51.064Z,15.10
2022-09-11T00:45:06.556Z,15.10
2022-09-11T00:47:37.261Z,15.10
2022-09-11T00:50:13.963Z,15.00
2022-09-11T00:52:53.253Z,15.00
2022-09-11T00:55:28.295Z,14.80
2022-09-11T00:58:03.032Z,14.90
2022-09-11T01:00:33.299Z,15.00
2022-09-11T01:03:03.254Z,14.80
2022-09-11T01:05:34.903Z,14.70
2022-09-11T01:08:04.316Z,14.80
2022-09-11T01:10:47.257Z,14.80
2022-09-11T01:13:33.218Z,14.70
2022-09-11T01:16:17.226Z,14.70
2022-09-11T01:18:57.152Z,14.70
2022-09-11T01:22:08.093Z,14.70
2022-09-11T01:24:57.455Z,14.70
2022-09-11T01:27:45.929Z,14.60
2022-09-11T01:30:18.798Z,14.60
2022-09-11T01:33:20.035Z,14.70
2022-09-11T01:35:57.977Z,14.70
2022-09-11T01:38:38.301Z,14.70
2022-09-11T01:41:15.561Z,14.60
2022-09-11T01:43:56.957Z,14.70
2022-09-11T01:46:30.019Z,14.60
2022-09-11T01:49:07.287Z,14.60
2022-09-11T01:51:41.536Z,14.60
2022-09-11T01:54:17.717Z,14.60
2022-09-11T01:56:55.552Z,14.60
2022-09-11T01:59:37.548Z,14.50
2022-09-11T02:02:12.434Z,14.50
2022-09-11T02:04:50.230Z,14.50
2022-09-11T02:07:25.091Z,14.50
2022-09-11T02:10:03.513Z,14.40
2022-09-11T02:12:42.990Z,14.30
2022-09-11T02:15:17.695Z,14.30
2022-09-11T02:17:57.014Z,14.30
2022-09-11T02:20:31.448Z,14.30
2022-09-11T02:23:00.117Z,14.30
2022-09-11T02:25:28.821Z,14.30
2022-09-11T02:27:59.115Z,14.30
2022-09-11T02:30:29.449Z,14.10
2022-09-11T02:32:58.280Z,14.20
2022-09-11T02:35:49.098Z,14.20
2022-09-11T02:38:30.773Z,14.20
2022-09-11T02:41:08.753Z,14.10
2022-09-11T02:44:00.394Z,14.20
2022-09-11T02:46:59.545Z,14.20
2022-09-11T02:49:46.007Z,14.20
2022-09-11T02:52:31.939Z,14.20
2022-09-11T02:55:11.906Z,14.10
2022-09-11T02:57:50.615Z,14.10
2022-09-11T03:00:19.749Z,14.00
2022-09-11T03:02:49.968Z,13.90
2022-09-11T03:05:18.997Z,13.90
2022-09-11T03:07:47.661Z,13.80
2022-09-11T03:10:16.799Z,13.90
2022-09-11T03:12:46.093Z,13.90
2022-09-11T03:15:16.826Z,13.90
2022-09-11T03:17:45.829Z,13.90
2022-09-11T03:20:17.976Z,13.80
2022-09-11T03:22:48.288Z,13.90
2022-09-11T03:25:17.894Z,13.80
2022-09-11T03:27:48.706Z,13.80
2022-09-11T03:30:18.128Z,13.90
2022-09-11T03:32:50.551Z,13.80
2022-09-11T03:35:21.079Z,13.80
2022-09-11T03:37:50.587Z,13.80
2022-09-11T03:40:20.287Z,13.90
2022-09-11T03:42:48.946Z,13.90
2022-09-11T03:45:19.104Z,13.80
2022-09-11T03:47:48.377Z,13.80
2022-09-11T03:50:17.914Z,13.80
2022-09-11T03:52:47.932Z,13.80
2022-09-11T03:55:16.991Z,13.80
2022-09-11T03:57:46.131Z,13.60
2022-09-11T04:00:15.216Z,13.80
2022-09-11T04:02:49.925Z,13.70
2022-09-11T04:05:34.765Z,13.70
2022-09-11T04:08:05.494Z,13.70
2022-09-11T04:10:36.072Z,13.70
2022-09-11T04:13:06.846Z,13.60
2022-09-11T04:15:35.762Z,13.50
2022-09-11T04:18:07.715Z,13.60
2022-09-11T04:20:40.658Z,13.60
2022-09-11T04:23:10.836Z,13.70
2022-09-11T04:25:39.441Z,13.70
2022-09-11T04:28:08.970Z,13.50
2022-09-11T04:30:38.799Z,13.50
2022-09-11T04:33:07.847Z,13.60
2022-09-11T04:35:40.498Z,13.60
2022-09-11T04:38:10.925Z,13.60
2022-09-11T04:40:43.355Z,13.60
2022-09-11T04:43:12.267Z,13.70
2022-09-11T04:45:41.767Z,13.50
2022-09-11T04:48:12.299Z,13.50
2022-09-11T04:50:41.362Z,13.50
2022-09-11T04:53:20.983Z,13.50
2022-09-11T04:55:50.610Z,13.60
2022-09-11T04:58:19.872Z,13.50
2022-09-11T05:00:50.583Z,13.60
2022-09-11T05:03:21.477Z,13.50
2022-09-11T05:05:50.235Z,13.60
2022-09-11T05:08:20.568Z,13.60
2022-09-11T05:10:50.350Z,13.60
2022-09-11T05:13:20.337Z,13.50
2022-09-11T05:15:50.161Z,13.60
2022-09-11T05:18:19.216Z,13.60
2022-09-11T05:20:49.121Z,13.60
2022-09-11T05:23:19.149Z,13.60
2022-09-11T05:25:47.822Z,13.60
2022-09-11T05:28:17.801Z,13.60
2022-09-11T05:30:46.883Z,13.60
2022-09-11T05:33:15.583Z,13.60
2022-09-11T05:35:44.408Z,13.70
2022-09-11T05:38:17.124Z,13.70
2022-09-11T05:40:50.898Z,13.70
2022-09-11T05:43:22.506Z,13.70
2022-09-11T05:45:57.964Z,13.70
2022-09-11T05:48:30.797Z,13.70
2022-09-11T05:51:07.138Z,13.70
2022-09-11T05:53:36.654Z,13.70
2022-09-11T05:56:13.033Z,13.80
2022-09-11T05:58:42.111Z,13.80
2022-09-11T06:01:16.144Z,13.80
2022-09-11T06:03:48.777Z,13.80
2022-09-11T06:06:22.221Z,13.90
2022-09-11T06:08:52.428Z,13.90
2022-09-11T06:11:24.061Z,14.00
2022-09-11T06:13:53.632Z,14.00
2022-09-11T06:16:25.348Z,14.10
2022-09-11T06:19:00.581Z,14.10
2022-09-11T06:21:29.720Z,14.10
2022-09-11T06:24:11.302Z,14.10
2022-09-11T06:26:42.161Z,14.20
2022-09-11T06:29:14.835Z,14.20
2022-09-11T06:31:49.050Z,14.30
2022-09-11T06:34:19.858Z,14.30
2022-09-11T06:36:52.039Z,14.30
2022-09-11T06:39:23.239Z,14.30
2022-09-11T06:41:54.744Z,14.30
2022-09-11T06:44:29.887Z,14.30
2022-09-11T06:47:01.790Z,14.30
2022-09-11T06:49:30.651Z,14.30
2022-09-11T06:52:18.681Z,14.30
2022-09-11T06:54:57.486Z,14.30
2022-09-11T06:57:29.125Z,14.30
2022-09-11T06:59:58.731Z,14.40
2022-09-11T07:02:28.403Z,14.40
2022-09-11T07:04:57.851Z,14.50
2022-09-11T07:07:30.258Z,14.60
2022-09-11T07:10:03.713Z,14.60
2022-09-11T07:12:34.232Z,14.60
2022-09-11T07:16:00.336Z,14.70
2022-09-11T07:18:37.444Z,14.70
2022-09-11T07:21:13.684Z,14.70
2022-09-11T07:23:47.906Z,14.80
2022-09-11T07:26:19.118Z,14.80
2022-09-11T07:28:51.663Z,14.80
2022-09-11T07:31:23.702Z,14.80
2022-09-11T07:33:55.038Z,14.80
2022-09-11T07:36:27.635Z,14.80
2022-09-11T07:38:57.489Z,14.90
2022-09-11T07:41:33.502Z,14.90
2022-09-11T07:44:07.274Z,14.90
2022-09-11T07:46:36.429Z,14.90
2022-09-11T07:49:10.267Z,14.90
2022-09-11T07:51:41.409Z,14.90
2022-09-11T07:54:11.940Z,15.00
2022-09-11T07:56:42.100Z,15.00
2022-09-11T07:59:14.550Z,15.10
2022-09-11T08:01:46.018Z,15.00
2022-09-11T08:04:16.076Z,15.00
2022-09-11T08:06:46.059Z,15.10
2022-09-11T08:09:23.312Z,15.10
2022-09-11T08:11:58.726Z,15.10
2022-09-11T08:14:31.257Z,15.10
2022-09-11T08:17:07.545Z,15.20
2022-09-11T08:19:39.057Z,15.40
2022-09-11T08:22:08.678Z,15.50
2022-09-11T08:24:42.937Z,15.60
2022-09-11T08:27:15.508Z,15.90
2022-09-11T08:29:47.137Z,16.00
2022-09-11T08:32:15.950Z,16.00
2022-09-11T08:34:45.110Z,15.90
2022-09-11T08:37:14.684Z,15.90
2022-09-11T08:39:43.500Z,15.90
2022-09-11T08:42:17.484Z,15.90
2022-09-11T08:44:56.796Z,15.90
2022-09-11T08:47:38.574Z,15.80
2022-09-11T08:50:18.173Z,15.80
2022-09-11T08:52:48.862Z,15.80
2022-09-11T08:55:40.036Z,15.80
2022-09-11T08:58:24.861Z,15.80
2022-09-11T09:01:10.134Z,15.90
2022-09-11T09:04:00.421Z,16.00
2022-09-11T09:06:48.401Z,15.90
2022-09-11T09:09:34.980Z,15.90
2022-09-11T09:12:17.631Z,15.90
2022-09-11T09:15:10.845Z,15.90
2022-09-11T09:17:46.672Z,15.90
2022-09-11T09:20:22.842Z,15.80
2022-09-11T09:22:59.183Z,15.80
2022-09-11T09:25:34.817Z,15.70
2022-09-11T09:28:17.134Z,15.70
2022-09-11T09:30:53.188Z,15.80
2022-09-11T09:33:34.646Z,15.80
2022-09-11T09:36:17.650Z,15.80
2022-09-11T09:38:48.398Z,15.80
2022-09-11T09:41:52.165Z,15.70
2022-09-11T09:44:42.947Z,15.70
2022-09-11T09:47:13.831Z,15.70
2022-09-11T09:49:50.232Z,15.60
2022-09-11T09:52:22.455Z,15.60
2022-09-11T09:55:00.185Z,15.70
2022-09-11T09:57:35.588Z,15.80
2022-09-11T10:00:15.885Z,15.80
2022-09-11T10:02:49.303Z,15.80
2022-09-11T10:05:27.278Z,15.80
2022-09-11T10:07:59.358Z,15.80
2022-09-11T10:10:32.023Z,15.70
2022-09-11T10:13:18.535Z,15.70
2022-09-11T10:15:52.781Z,15.70
2022-09-11T10:18:43.157Z,15.70
2022-09-11T10:21:30.310Z,15.80
2022-09-11T10:24:01.322Z,15.90
2022-09-11T10:26:35.272Z,16.00
2022-09-11T10:29:14.122Z,16.00
2022-09-11T10:31:51.902Z,16.10
2022-09-11T10:34:23.343Z,16.00
2022-09-11T10:37:08.642Z,16.00
2022-09-11T10:39:39.731Z,16.00
2022-09-11T10:42:17.713Z,16.00
2022-09-11T10:44:49.344Z,16.00
2022-09-11T10:47:29.937Z,15.90
2022-09-11T10:50:26.951Z,15.90
2022-09-11T10:53:19.499Z,15.90
2022-09-11T10:56:00.692Z,15.90
2022-09-11T10:58:37.732Z,15.80
2022-09-11T11:01:07.104Z,15.90
2022-09-11T11:03:36.485Z,15.80
2022-09-11T11:06:26.837Z,15.80
2022-09-11T11:09:38.109Z,15.70
2022-09-11T11:12:33.185Z,15.70
2022-09-11T11:15:38.981Z,15.70
2022-09-11T11:18:35.510Z,15.60
2022-09-11T11:21:22.333Z,15.50
2022-09-11T11:24:07.241Z,15.60
2022-09-11T11:27:00.156Z,15.60
2022-09-11T11:30:06.621Z,15.60
2022-09-11T11:33:14.531Z,15.60
2022-09-11T11:35:58.399Z,15.50
2022-09-11T11:38:35.897Z,15.50
2022-09-11T11:41:13.481Z,15.60
2022-09-11T11:43:48.312Z,15.50
2022-09-11T11:46:23.103Z,15.50
2022-09-11T11:49:00.999Z,15.50
2022-09-11T11:51:40.621Z,15.60
2022-09-11T11:54:19.178Z,15.60
2022-09-11T11:56:53.512Z,15.70
2022-09-11T11:59:33.763Z,15.60
2022-09-11T12:02:18.150Z,15.60
2022-09-11T12:04:55.084Z,15.70
2022-09-11T12:07:30.261Z,15.60
2022-09-11T12:10:01.583Z,15.60
2022-09-11T12:12:35.224Z,15.50
2022-09-11T12:15:10.038Z,15.60
2022-09-11T12:17:40.354Z,15.60
2022-09-11T12:20:32.832Z,15.70
2022-09-11T12:23:02.533Z,15.70
2022-09-11T12:26:19.232Z,15.60
2022-09-11T12:28:49.079Z,15.70
2022-09-11T12:31:19.628Z,15.60
2022-09-11T12:33:56.814Z,15.60
2022-09-11T12:36:51.378Z,15.60
2022-09-11T12:39:31.400Z,15.70
2022-09-11T12:42:58.804Z,15.70
2022-09-11T12:45:38.572Z,15.70
2022-09-11T12:48:16.564Z,15.80
2022-09-11T12:50:54.467Z,15.80
2022-09-11T12:53:29.436Z,15.70
2022-09-11T12:56:02.179Z,15.70
2022-09-11T12:58:38.960Z,15.70
2022-09-11T13:01:26.127Z,15.80
2022-09-11T13:04:05.102Z,16.00
2022-09-11T13:06:43.093Z,16.00
2022-09-11T13:09:23.603Z,16.20
2022-09-11T13:11:54.916Z,16.20
2022-09-11T13:14:51.474Z,16.20
2022-09-11T13:17:30.582Z,16.10
2022-09-11T13:20:24.361Z,16.10
2022-09-11T13:22:58.512Z,16.20
2022-09-11T13:25:28.372Z,16.20
2022-09-11T13:28:02.844Z,16.30
2022-09-11T13:30:32.341Z,16.20
2022-09-11T13:33:09.737Z,16.30
2022-09-11T13:35:45.991Z,16.40
2022-09-11T13:38:23.393Z,16.40
2022-09-11T13:40:58.784Z,16.40
2022-09-11T13:43:33.290Z,16.40
2022-09-11T13:46:23.106Z,16.50
2022-09-11T13:48:58.260Z,16.50
2022-09-11T13:51:31.327Z,16.50
2022-09-11T13:54:12.701Z,16.50
2022-09-11T13:56:47.915Z,16.50
2022-09-11T13:59:40.350Z,16.60
2022-09-11T14:02:42.156Z,16.70
2022-09-11T14:05:16.950Z,16.70
2022-09-11T14:08:00.812Z,16.80
2022-09-11T14:10:34.704Z,16.80
2022-09-11T14:13:18.788Z,16.90
2022-09-11T14:15:55.409Z,17.10
2022-09-11T14:18:33.277Z,17.10
2022-09-11T14:21:06.565Z,17.10
2022-09-11T14:23:48.205Z,17.00
2022-09-11T14:26:20.008Z,17.00
2022-09-11T14:29:06.281Z,17.10
2022-09-11T14:31:39.279Z,17.20
2022-09-11T14:34:21.060Z,17.20
2022-09-11T14:36:56.663Z,17.20
2022-09-11T14:39:36.804Z,17.00
2022-09-11T14:42:10.319Z,17.00
2022-09-11T14:44:41.354Z,17.00
2022-09-11T14:47:16.230Z,16.90
2022-09-11T14:49:45.740Z,16.90
2022-09-11T14:52:17.347Z,16.80
2022-09-11T14:54:48.286Z,16.80
2022-09-11T14:57:21.009Z,16.80
2022-09-11T14:59:51.115Z,16.80
2022-09-11T15:02:22.645Z,16.90
2022-09-11T15:04:53.739Z,16.90
2022-09-11T15:07:24.590Z,16.80
2022-09-11T15:09:56.181Z,16.90
2022-09-11T15:12:25.113Z,16.90
2022-09-11T15:14:58.577Z,16.90
2022-09-11T15:17:31.646Z,16.90
2022-09-11T15:20:01.183Z,16.90
2022-09-11T15:22:31.618Z,16.90
2022-09-11T15:25:03.931Z,16.90
2022-09-11T15:27:32.827Z,16.90
2022-09-11T15:30:01.749Z,16.90
2022-09-11T15:32:31.438Z,16.90
2022-09-11T15:35:00.107Z,16.90
2022-09-11T15:37:28.777Z,17.00
2022-09-11T15:39:57.947Z,16.90
2022-09-11T15:42:28.011Z,16.90
2022-09-11T15:44:56.929Z,16.90
2022-09-11T15:47:25.509Z,16.80
2022-09-11T15:49:54.089Z,16.90
2022-09-11T15:52:22.753Z,16.80
2022-09-11T15:54:52.359Z,16.80
2022-09-11T15:57:21.201Z,16.80
2022-09-11T15:59:52.482Z,16.80
2022-09-11T16:02:21.746Z,16.80
2022-09-11T16:04:53.795Z,16.80
2022-09-11T16:07:23.334Z,16.80
2022-09-11T16:09:52.703Z,16.80
2022-09-11T16:12:21.323Z,16.70
2022-09-11T16:14:52.664Z,16.70
2022-09-11T16:17:23.112Z,16.70
2022-09-11T16:19:51.836Z,16.70
2022-09-11T16:22:20.520Z,16.70
2022-09-11T16:24:49.104Z,16.70
2022-09-11T16:27:17.984Z,16.70
2022-09-11T16:32:40.964Z,16.70
2022-09-11T16:35:13.737Z,16.70
2022-09-11T16:37:42.456Z,16.60
2022-09-11T16:40:11.798Z,16.60
2022-09-11T16:42:41.042Z,16.70
2022-09-11T16:45:10.965Z,16.60
2022-09-11T16:47:41.155Z,16.50
2022-09-11T16:50:11.674Z,16.50
2022-09-11T16:52:43.912Z,16.60
2022-09-11T16:55:12.876Z,16.50
2022-09-11T16:57:41.858Z,16.50
2022-09-11T17:00:14.175Z,16.40
2022-09-11T17:02:44.330Z,16.40
2022-09-11T17:05:12.990Z,16.40
2022-09-11T17:07:41.618Z,16.40
2022-09-11T17:10:11.830Z,16.30
2022-09-11T17:12:40.485Z,16.30
2022-09-11T17:15:10.824Z,16.20
2022-09-11T17:17:39.484Z,16.30
2022-09-11T17:20:12.596Z,16.20
2022-09-11T17:22:41.993Z,16.20
2022-09-11T17:25:11.614Z,16.20
2022-09-11T17:27:40.643Z,16.20
2022-09-11T17:30:11.770Z,16.20
2022-09-11T17:32:40.741Z,16.10
2022-09-11T17:35:12.638Z,16.10
2022-09-11T17:37:42.757Z,16.10
2022-09-11T17:40:12.645Z,16.10
2022-09-11T17:42:42.767Z,16.00
2022-09-11T17:45:13.070Z,16.00
2022-09-11T17:47:45.457Z,16.00
2022-09-11T17:50:16.958Z,15.90
2022-09-11T17:52:46.317Z,15.90
2022-09-11T17:55:21.585Z,15.90
2022-09-11T17:57:54.839Z,15.80
2022-09-11T18:00:23.468Z,15.80
2022-09-11T18:02:54.031Z,15.80
2022-09-11T18:05:24.036Z,15.80
2022-09-11T18:07:53.659Z,15.80
2022-09-11T18:10:22.650Z,15.80
2022-09-11T18:12:53.775Z,15.80
2022-09-11T18:15:22.714Z,15.70
2022-09-11T18:17:54.121Z,15.70
2022-09-11T18:20:24.815Z,15.70
2022-09-11T18:22:54.123Z,15.70
2022-09-11T18:25:26.317Z,15.70
2022-09-11T18:27:56.246Z,15.60
2022-09-11T18:30:25.620Z,15.60
2022-09-11T18:32:54.881Z,15.50
2022-09-11T18:35:25.540Z,15.60
2022-09-11T18:37:54.928Z,15.50
2022-09-11T18:40:24.067Z,15.50
2022-09-11T18:42:54.897Z,15.50
2022-09-11T18:45:24.138Z,15.50
2022-09-11T18:47:54.643Z,15.40
2022-09-11T18:50:26.230Z,15.50
2022-09-11T18:52:56.735Z,15.50
2022-09-11T18:55:25.589Z,15.50
2022-09-11T18:57:55.707Z,15.40
2022-09-11T19:00:25.926Z,15.40
2022-09-11T19:03:00.325Z,15.50
2022-09-11T19:05:31.539Z,15.40
2022-09-11T19:08:01.870Z,15.40
2022-09-11T19:10:32.369Z,15.30
2022-09-11T19:13:01.436Z,15.30
2022-09-11T19:15:32.521Z,15.40
2022-09-11T19:18:02.163Z,15.30
2022-09-11T19:20:32.613Z,15.30
2022-09-11T19:23:02.925Z,15.30
2022-09-11T19:25:57.735Z,15.30
2022-09-11T19:28:26.783Z,15.30
2022-09-11T19:31:01.351Z,15.30
2022-09-11T19:33:32.647Z,15.40
2022-09-11T19:36:08.192Z,15.30
2022-09-11T19:38:41.104Z,15.30
2022-09-11T19:41:12.846Z,15.30
2022-09-11T19:43:43.039Z,15.30
2022-09-11T19:46:14.400Z,15.20
2022-09-11T19:48:44.397Z,15.30
2022-09-11T19:51:18.360Z,15.30
2022-09-11T19:53:47.063Z,15.30
2022-09-11T19:56:16.421Z,15.30
2022-09-11T19:58:45.508Z,15.30
2022-09-11T20:01:16.594Z,15.30
2022-09-11T20:03:47.307Z,15.30
2022-09-11T20:06:19.495Z,15.20
2022-09-11T20:08:59.044Z,15.20
2022-09-11T20:11:36.645Z,15.20
2022-09-11T20:14:05.480Z,15.20
2022-09-11T20:16:34.696Z,15.30
2022-09-11T20:19:06.573Z,15.30
2022-09-11T20:21:36.876Z,15.20
2022-09-11T20:24:07.467Z,15.20
2022-09-11T20:26:36.789Z,15.20
2022-09-11T20:29:08.765Z,15.30
2022-09-11T20:31:48.717Z,15.20
2022-09-11T20:34:19.790Z,15.20
2022-09-11T20:36:50.009Z,15.10
2022-09-11T20:39:20.225Z,15.20
2022-09-11T20:41:48.854Z,15.20
2022-09-11T20:44:17.715Z,15.20
2022-09-11T20:46:47.608Z,15.10
2022-09-11T20:49:16.427Z,15.20
2022-09-11T20:51:45.171Z,15.20
2022-09-11T20:54:15.416Z,15.10
2022-09-11T20:56:44.561Z,15.10
2022-09-11T20:59:13.192Z,15.10
2022-09-11T21:01:42.000Z,15.10
2022-09-11T21:04:11.524Z,15.10
2022-09-11T21:06:40.240Z,15.10
2022-09-11T21:09:11.983Z,15.10
2022-09-11T21:11:43.429Z,15.10
2022-09-11T21:14:14.777Z,15.10
2022-09-11T21:16:43.861Z,15.10
2022-09-11T21:19:12.475Z,15.00
2022-09-11T21:21:41.218Z,15.00
2022-09-11T21:24:14.257Z,15.00
2022-09-11T21:26:44.317Z,15.00
2022-09-11T21:29:15.085Z,15.00
2022-09-11T21:31:43.754Z,15.10
2022-09-11T21:34:12.593Z,15.00
2022-09-11T21:36:42.533Z,15.00
2022-09-11T21:39:12.341Z,15.10
2022-09-11T21:41:40.982Z,15.00
2022-09-11T21:44:10.953Z,15.00
2022-09-11T21:46:39.573Z,15.00
2022-09-11T21:49:08.164Z,15.00
2022-09-11T21:51:36.772Z,14.90
2022-09-11T21:54:05.721Z,15.00
2022-09-11T21:56:35.410Z,15.00
2022-09-11T21:59:05.166Z,15.00
2022-09-11T22:01:35.339Z,15.00
2022-09-11T22:04:04.462Z,15.10
2022-09-11T22:06:33.362Z,15.00
2022-09-11T22:09:02.034Z,14.90
2022-09-11T22:11:30.731Z,15.00
2022-09-11T22:13:59.436Z,15.00
2022-09-11T22:16:28.079Z,15.00
2022-09-11T22:18:58.105Z,15.00
2022-09-11T22:21:26.721Z,15.00
2022-09-11T22:23:57.242Z,14.90
2022-09-11T22:26:25.898Z,15.00
2022-09-11T22:28:54.471Z,15.00
2022-09-11T22:31:26.136Z,14.90
2022-09-11T22:33:58.146Z,15.00
2022-09-11T22:36:30.356Z,15.00
2022-09-11T22:38:59.658Z,14.90
2022-09-11T22:41:29.009Z,15.00
2022-09-11T22:43:57.726Z,14.90
2022-09-11T22:46:26.886Z,15.00
2022-09-11T22:48:58.007Z,14.90
2022-09-11T22:51:26.672Z,14.90
2022-09-11T22:53:55.957Z,15.00
2022-09-11T22:56:24.651Z,15.00
2022-09-11T22:58:53.324Z,15.00
2022-09-11T23:01:22.847Z,15.00
2022-09-11T23:03:52.264Z,15.00
2022-09-11T23:06:40.239Z,14.90
2022-09-11T23:09:13.070Z,14.90
2022-09-11T23:11:41.854Z,14.90
2022-09-11T23:14:14.374Z,14.90
2022-09-11T23:16:43.717Z,15.00
2022-09-11T23:19:15.130Z,15.00
2022-09-11T23:21:45.175Z,15.00
2022-09-11T23:24:16.704Z,15.00
2022-09-11T23:26:45.661Z,15.00
2022-09-11T23:29:14.562Z,14.90
2022-09-11T23:31:44.381Z,14.90
2022-09-11T23:34:17.435Z,14.90
2022-09-11T23:36:47.429Z,15.00
2022-09-11T23:39:16.429Z,14.90
2022-09-11T23:41:45.178Z,14.90
2022-09-11T23:44:13.869Z,14.90
2022-09-11T23:46:42.489Z,14.90
2022-09-11T23:49:12.782Z,15.00
2022-09-11T23:51:41.730Z,15.00
2022-09-11T23:54:11.717Z,14.90
2022-09-11T23:56:40.357Z,14.90
2022-09-11T23:59:09.224Z,15.00
